sensor_id;sensor_type;location;lat;lon;timestamp;pressure;altitude;pressure_sealevel;temperature;humidity
48824;BME280;34640;53.590;10.054;2023-10-31T00:02:06;99051.16;;;11.83;100.00
48824;BME280;34640;53.590;10.054;2023-10-31T00:04:41;99052.88;;;11.83;100.00
48824;BME280;34640;53.590;10.054;2023-10-31T00:07:14;99045.94;;;11.83;100.00
48824;BME280;34640;53.590;10.054;2023-10-31T00:09:46;99041.63;;;11.84;100.00
48824;BME280;34640;53.590;10.054;2023-10-31T00:12:19;99041.66;;;11.85;100.00
48824;BME280;34640;53.590;10.054;2023-10-31T00:14:52;99042.50;;;11.84;100.00
48824;BME280;34640;53.590;10.054;2023-10-31T00:17:25;99036.50;;;11.88;100.00
48824;BME280;34640;53.590;10.054;2023-10-31T00:19:59;99041.81;;;11.91;100.00
48824;BME280;34640;53.590;10.054;2023-10-31T00:22:32;99044.41;;;11.91;100.00
48824;BME280;34640;53.590;10.054;2023-10-31T00:25:05;99038.31;;;11.91;100.00
48824;BME280;34640;53.590;10.054;2023-10-31T00:27:38;99037.44;;;11.90;100.00
48824;BME280;34640;53.590;10.054;2023-10-31T00:30:11;99045.19;;;11.87;100.00
48824;BME280;34640;53.590;10.054;2023-10-31T00:32:44;99040.84;;;11.88;100.00
48824;BME280;34640;53.590;10.054;2023-10-31T00:35:19;99042.66;;;11.90;100.00
48824;BME280;34640;53.590;10.054;2023-10-31T00:37:52;99045.28;;;11.92;100.00
48824;BME280;34640;53.590;10.054;2023-10-31T00:40:24;99040.06;;;11.92;100.00
48824;BME280;34640;53.590;10.054;2023-10-31T00:42:57;99027.84;;;11.89;100.00
48824;BME280;34640;53.590;10.054;2023-10-31T00:45:32;99034.81;;;11.90;100.00
48824;BME280;34640;53.590;10.054;2023-10-31T00:48:05;99032.31;;;11.93;100.00
48824;BME280;34640;53.590;10.054;2023-10-31T00:50:39;99032.25;;;11.92;100.00
48824;BME280;34640;53.590;10.054;2023-10-31T00:53:12;99027.03;;;11.92;100.00
48824;BME280;34640;53.590;10.054;2023-10-31T00:55:46;99023.63;;;11.93;100.00
48824;BME280;34640;53.590;10.054;2023-10-31T00:58:18;99019.22;;;11.92;100.00
48824;BME280;34640;53.590;10.054;2023-10-31T01:00:51;99019.22;;;11.92;100.00
48824;BME280;34640;53.590;10.054;2023-10-31T01:03:24;99007.00;;;11.91;100.00
48824;BME280;34640;53.590;10.054;2023-10-31T01:05:58;99006.16;;;11.92;100.00
48824;BME280;34640;53.590;10.054;2023-10-31T01:08:31;98998.41;;;11.93;100.00
48824;BME280;34640;53.590;10.054;2023-10-31T01:11:04;99007.97;;;11.93;100.00
48824;BME280;34640;53.590;10.054;2023-10-31T01:13:36;99004.41;;;11.91;100.00
48824;BME280;34640;53.590;10.054;2023-10-31T01:16:09;98995.69;;;11.90;100.00
48824;BME280;34640;53.590;10.054;2023-10-31T01:18:42;98997.47;;;11.91;100.00
48824;BME280;34640;53.590;10.054;2023-10-31T01:21:16;99004.41;;;11.91;100.00
48824;BME280;34640;53.590;10.054;2023-10-31T01:23:49;99006.97;;;11.89;100.00
48824;BME280;34640;53.590;10.054;2023-10-31T01:26:22;99003.53;;;11.90;100.00
48824;BME280;34640;53.590;10.054;2023-10-31T01:28:54;98994.84;;;11.91;100.00
48824;BME280;34640;53.590;10.054;2023-10-31T01:31:27;98996.63;;;11.92;100.00
48824;BME280;34640;53.590;10.054;2023-10-31T01:34:00;98991.31;;;11.89;100.00
48824;BME280;34640;53.590;10.054;2023-10-31T01:36:34;98987.00;;;11.90;100.00
48824;BME280;34640;53.590;10.054;2023-10-31T01:39:07;98989.59;;;11.90;100.00
48824;BME280;34640;53.590;10.054;2023-10-31T01:41:41;98989.63;;;11.91;100.00
48824;BME280;34640;53.590;10.054;2023-10-31T01:44:14;98984.34;;;11.88;100.00
48824;BME280;34640;53.590;10.054;2023-10-31T01:46:47;98986.16;;;11.91;100.00
48824;BME280;34640;53.590;10.054;2023-10-31T01:49:20;98978.25;;;11.88;100.00
48824;BME280;34640;53.590;10.054;2023-10-31T01:51:54;98988.72;;;11.89;100.00
48824;BME280;34640;53.590;10.054;2023-10-31T01:54:27;98972.16;;;11.87;100.00
48824;BME280;34640;53.590;10.054;2023-10-31T01:57:00;98979.16;;;11.90;100.00
48824;BME280;34640;53.590;10.054;2023-10-31T01:59:33;98972.16;;;11.87;100.00
48824;BME280;34640;53.590;10.054;2023-10-31T02:02:06;98971.34;;;11.90;100.00
48824;BME280;34640;53.590;10.054;2023-10-31T02:04:39;98957.38;;;11.88;100.00
48824;BME280;34640;53.590;10.054;2023-10-31T02:07:13;98950.41;;;11.87;100.00
48824;BME280;34640;53.590;10.054;2023-10-31T02:09:46;98957.41;;;11.89;100.00
48824;BME280;34640;53.590;10.054;2023-10-31T02:12:31;98946.84;;;11.83;100.00
48824;BME280;34640;53.590;10.054;2023-10-31T02:15:06;98935.59;;;11.86;100.00
48824;BME280;34640;53.590;10.054;2023-10-31T02:17:38;98936.53;;;11.88;100.00
48824;BME280;34640;53.590;10.054;2023-10-31T02:20:11;98936.53;;;11.88;100.00
48824;BME280;34640;53.590;10.054;2023-10-31T02:22:45;98935.63;;;11.87;100.00
48824;BME280;34640;53.590;10.054;2023-10-31T02:25:19;98927.88;;;11.90;100.00
48824;BME280;34640;53.590;10.054;2023-10-31T02:27:52;98915.72;;;11.91;100.00
48824;BME280;34640;53.590;10.054;2023-10-31T02:30:26;98916.59;;;11.91;100.00
48824;BME280;34640;53.590;10.054;2023-10-31T02:33:00;98909.63;;;11.90;100.00
48824;BME280;34640;53.590;10.054;2023-10-31T02:35:33;98915.69;;;11.89;100.00
48824;BME280;34640;53.590;10.054;2023-10-31T02:38:07;98905.25;;;11.89;100.00
48824;BME280;34640;53.590;10.054;2023-10-31T02:40:40;98907.84;;;11.88;100.00
48824;BME280;34640;53.590;10.054;2023-10-31T02:43:13;98905.25;;;11.89;100.00
48824;BME280;34640;53.590;10.054;2023-10-31T02:45:46;98903.53;;;11.90;100.00
48824;BME280;34640;53.590;10.054;2023-10-31T02:48:19;98903.50;;;11.88;100.00
48824;BME280;34640;53.590;10.054;2023-10-31T02:50:52;98893.91;;;11.87;100.00
48824;BME280;34640;53.590;10.054;2023-10-31T02:53:26;98893.06;;;11.88;100.00
48824;BME280;34640;53.590;10.054;2023-10-31T02:55:59;98891.41;;;11.92;100.00
48824;BME280;34640;53.590;10.054;2023-10-31T02:58:32;98889.63;;;11.91;100.00
48824;BME280;34640;53.590;10.054;2023-10-31T03:01:05;98887.88;;;11.90;100.00
48824;BME280;34640;53.590;10.054;2023-10-31T03:03:37;98883.53;;;11.90;100.00
48824;BME280;34640;53.590;10.054;2023-10-31T03:06:10;98885.31;;;11.91;100.00
48824;BME280;34640;53.590;10.054;2023-10-31T03:08:44;98874.00;;;11.91;100.00
48824;BME280;34640;53.590;10.054;2023-10-31T03:11:21;98873.97;;;11.89;100.00
48824;BME280;34640;53.590;10.054;2023-10-31T03:13:54;98880.03;;;11.88;100.00
48824;BME280;34640;53.590;10.054;2023-10-31T03:16:28;98878.28;;;11.89;100.00
48824;BME280;34640;53.590;10.054;2023-10-31T03:19:01;98873.97;;;11.89;100.00
48824;BME280;34640;53.590;10.054;2023-10-31T03:21:33;98875.72;;;11.90;100.00
48824;BME280;34640;53.590;10.054;2023-10-31T03:24:07;98865.25;;;11.89;100.00
48824;BME280;34640;53.590;10.054;2023-10-31T03:26:40;98862.72;;;11.92;100.00
48824;BME280;34640;53.590;10.054;2023-10-31T03:29:13;98854.88;;;11.92;100.00
48824;BME280;34640;53.590;10.054;2023-10-31T03:31:46;98853.22;;;11.94;100.00
48824;BME280;34640;53.590;10.054;2023-10-31T03:34:19;98859.22;;;11.91;100.00
48824;BME280;34640;53.590;10.054;2023-10-31T03:36:52;98854.13;;;11.95;100.00
48824;BME280;34640;53.590;10.054;2023-10-31T03:39:26;98848.00;;;11.94;100.00
48824;BME280;34640;53.590;10.054;2023-10-31T03:41:59;98849.63;;;11.90;100.00
48824;BME280;34640;53.590;10.054;2023-10-31T03:44:32;98848.84;;;11.93;100.00
48824;BME280;34640;53.590;10.054;2023-10-31T03:47:05;98842.72;;;11.92;100.00
48824;BME280;34640;53.590;10.054;2023-10-31T03:49:37;98843.56;;;11.91;100.00
48824;BME280;34640;53.590;10.054;2023-10-31T03:52:10;98844.47;;;11.92;100.00
48824;BME280;34640;53.590;10.054;2023-10-31T03:54:45;98847.13;;;11.93;100.00
48824;BME280;34640;53.590;10.054;2023-10-31T03:57:18;98846.31;;;11.96;100.00
48824;BME280;34640;53.590;10.054;2023-10-31T03:59:50;98847.22;;;11.98;100.00
48824;BME280;34640;53.590;10.054;2023-10-31T04:02:23;98841.13;;;11.98;100.00
48824;BME280;34640;53.590;10.054;2023-10-31T04:04:56;98840.28;;;11.99;100.00
48824;BME280;34640;53.590;10.054;2023-10-31T04:07:29;98841.13;;;11.98;100.00
48824;BME280;34640;53.590;10.054;2023-10-31T04:10:04;98837.66;;;11.97;100.00
48824;BME280;34640;53.590;10.054;2023-10-31T04:12:37;98837.72;;;12.00;100.00
48824;BME280;34640;53.590;10.054;2023-10-31T04:15:10;98826.44;;;12.01;100.00
48824;BME280;34640;53.590;10.054;2023-10-31T04:17:43;98826.47;;;12.03;100.00
48824;BME280;34640;53.590;10.054;2023-10-31T04:20:16;98826.50;;;12.04;100.00
48824;BME280;34640;53.590;10.054;2023-10-31T04:22:49;98822.19;;;12.06;100.00
48824;BME280;34640;53.590;10.054;2023-10-31T04:25:23;98832.66;;;12.08;100.00
48824;BME280;34640;53.590;10.054;2023-10-31T04:27:56;98830.06;;;12.09;100.00
48824;BME280;34640;53.590;10.054;2023-10-31T04:30:29;98822.22;;;12.08;100.00
48824;BME280;34640;53.590;10.054;2023-10-31T04:33:02;98825.72;;;12.08;100.00
48824;BME280;34640;53.590;10.054;2023-10-31T04:35:35;98824.84;;;12.09;100.00
48824;BME280;34640;53.590;10.054;2023-10-31T04:38:08;98822.28;;;12.11;100.00
48824;BME280;34640;53.590;10.054;2023-10-31T04:40:42;98830.13;;;12.12;100.00
48824;BME280;34640;53.590;10.054;2023-10-31T04:43:15;98824.97;;;12.14;100.00
48824;BME280;34640;53.590;10.054;2023-10-31T04:45:47;98825.91;;;12.16;100.00
48824;BME280;34640;53.590;10.054;2023-10-31T04:48:20;98817.28;;;12.20;100.00
48824;BME280;34640;53.590;10.054;2023-10-31T04:50:53;98808.63;;;12.22;100.00
48824;BME280;34640;53.590;10.054;2023-10-31T04:53:28;98817.31;;;12.21;100.00
48824;BME280;34640;53.590;10.054;2023-10-31T04:56:03;98804.31;;;12.23;100.00
48824;BME280;34640;53.590;10.054;2023-10-31T04:58:36;98806.91;;;12.23;100.00
48824;BME280;34640;53.590;10.054;2023-10-31T05:01:09;98809.56;;;12.26;100.00
48824;BME280;34640;53.590;10.054;2023-10-31T05:03:42;98804.38;;;12.26;100.00
48824;BME280;34640;53.590;10.054;2023-10-31T05:06:19;98795.75;;;12.30;100.00
48824;BME280;34640;53.590;10.054;2023-10-31T05:08:52;98799.25;;;12.32;100.00
48824;BME280;34640;53.590;10.054;2023-10-31T05:11:26;98797.56;;;12.34;100.00
48824;BME280;34640;53.590;10.054;2023-10-31T05:13:59;98794.16;;;12.37;100.00
48824;BME280;34640;53.590;10.054;2023-10-31T05:16:39;98786.28;;;12.35;100.00
48824;BME280;34640;53.590;10.054;2023-10-31T05:19:11;98790.69;;;12.36;100.00
48824;BME280;34640;53.590;10.054;2023-10-31T05:21:44;98792.47;;;12.39;100.00
48824;BME280;34640;53.590;10.054;2023-10-31T05:24:17;98792.53;;;12.42;100.00
48824;BME280;34640;53.590;10.054;2023-10-31T05:26:51;98793.41;;;12.42;100.00
48824;BME280;34640;53.590;10.054;2023-10-31T05:29:24;98802.97;;;12.42;100.00
48824;BME280;34640;53.590;10.054;2023-10-31T05:31:57;98802.03;;;12.38;100.00
48824;BME280;34640;53.590;10.054;2023-10-31T05:34:30;98798.56;;;12.39;100.00
48824;BME280;34640;53.590;10.054;2023-10-31T05:37:03;98806.47;;;12.44;100.00
48824;BME280;34640;53.590;10.054;2023-10-31T05:39:37;98809.09;;;12.44;100.00
48824;BME280;34640;53.590;10.054;2023-10-31T05:42:11;98798.72;;;12.47;100.00
48824;BME280;34640;53.590;10.054;2023-10-31T05:44:44;98797.00;;;12.49;100.00
48824;BME280;34640;53.590;10.054;2023-10-31T05:47:17;98791.69;;;12.44;100.00
48824;BME280;34640;53.590;10.054;2023-10-31T05:49:50;98795.25;;;12.48;100.00
48824;BME280;34640;53.590;10.054;2023-10-31T05:52:23;98798.75;;;12.50;100.00
48824;BME280;34640;53.590;10.054;2023-10-31T05:54:56;98800.69;;;12.59;100.00
48824;BME280;34640;53.590;10.054;2023-10-31T05:57:30;98797.09;;;12.53;100.00
48824;BME280;34640;53.590;10.054;2023-10-31T06:00:03;98797.06;;;12.52;100.00
48824;BME280;34640;53.590;10.054;2023-10-31T06:02:36;98791.81;;;12.50;100.00
48824;BME280;34640;53.590;10.054;2023-10-31T06:05:09;98789.28;;;12.55;100.00
48824;BME280;34640;53.590;10.054;2023-10-31T06:07:42;98792.75;;;12.54;100.00
48824;BME280;34640;53.590;10.054;2023-10-31T06:10:15;98796.28;;;12.56;100.00
48824;BME280;34640;53.590;10.054;2023-10-31T06:12:49;98797.94;;;12.52;100.00
48824;BME280;34640;53.590;10.054;2023-10-31T06:15:22;98802.28;;;12.52;100.00
48824;BME280;34640;53.590;10.054;2023-10-31T06:17:55;98795.47;;;12.59;100.00
48824;BME280;34640;53.590;10.054;2023-10-31T06:20:28;98791.94;;;12.57;100.00
48824;BME280;34640;53.590;10.054;2023-10-31T06:23:00;98794.44;;;12.52;100.00
48824;BME280;34640;53.590;10.054;2023-10-31T06:25:34;98797.94;;;12.52;100.00
48824;BME280;34640;53.590;10.054;2023-10-31T06:28:09;98790.09;;;12.51;100.00
48824;BME280;34640;53.590;10.054;2023-10-31T06:30:41;98791.00;;;12.53;100.00
48824;BME280;34640;53.590;10.054;2023-10-31T06:33:15;98797.06;;;12.52;100.00
48824;BME280;34640;53.590;10.054;2023-10-31T06:35:48;98791.84;;;12.52;100.00
48824;BME280;34640;53.590;10.054;2023-10-31T06:38:21;98795.34;;;12.54;100.00
48824;BME280;34640;53.590;10.054;2023-10-31T06:40:54;98801.44;;;12.53;100.00
48824;BME280;34640;53.590;10.054;2023-10-31T06:43:30;98803.22;;;12.55;100.00
48824;BME280;34640;53.590;10.054;2023-10-31T06:46:05;98797.16;;;12.57;100.00
48824;BME280;34640;53.590;10.054;2023-10-31T06:48:38;98804.13;;;12.58;100.00
48824;BME280;34640;53.590;10.054;2023-10-31T06:51:11;98797.25;;;12.60;100.00
48824;BME280;34640;53.590;10.054;2023-10-31T06:53:44;98797.28;;;12.61;100.00
48824;BME280;34640;53.590;10.054;2023-10-31T06:56:16;98799.88;;;12.61;100.00
48824;BME280;34640;53.590;10.054;2023-10-31T06:58:51;98796.38;;;12.61;100.00
48824;BME280;34640;53.590;10.054;2023-10-31T07:01:24;98799.88;;;12.61;100.00
48824;BME280;34640;53.590;10.054;2023-10-31T07:03:58;98799.00;;;12.61;100.00
48824;BME280;34640;53.590;10.054;2023-10-31T07:06:31;98805.09;;;12.61;100.00
48824;BME280;34640;53.590;10.054;2023-10-31T07:09:04;98806.84;;;12.62;100.00
48824;BME280;34640;53.590;10.054;2023-10-31T07:11:37;98809.47;;;12.62;100.00
48824;BME280;34640;53.590;10.054;2023-10-31T07:14:11;98802.47;;;12.60;100.00
48824;BME280;34640;53.590;10.054;2023-10-31T07:16:44;98801.59;;;12.61;100.00
48824;BME280;34640;53.590;10.054;2023-10-31T07:19:17;98802.44;;;12.58;100.00
48824;BME280;34640;53.590;10.054;2023-10-31T07:21:50;98795.47;;;12.59;100.00
48824;BME280;34640;53.590;10.054;2023-10-31T07:24:23;98793.81;;;12.62;100.00
48824;BME280;34640;53.590;10.054;2023-10-31T07:26:58;98799.81;;;12.58;100.00
48824;BME280;34640;53.590;10.054;2023-10-31T07:29:32;98801.47;;;12.54;100.00
48824;BME280;34640;53.590;10.054;2023-10-31T07:32:05;98797.09;;;12.53;100.00
48824;BME280;34640;53.590;10.054;2023-10-31T07:34:41;98803.94;;;12.47;100.00
48824;BME280;34640;53.590;10.054;2023-10-31T07:37:15;98815.31;;;12.50;100.00
48824;BME280;34640;53.590;10.054;2023-10-31T07:39:47;98810.00;;;12.46;100.00
48824;BME280;34640;53.590;10.054;2023-10-31T07:42:22;98807.25;;;12.38;100.00
48824;BME280;34640;53.590;10.054;2023-10-31T07:44:56;98815.22;;;12.46;100.00
48824;BME280;34640;53.590;10.054;2023-10-31T07:47:29;98809.00;;;12.39;100.00
48824;BME280;34640;53.590;10.054;2023-10-31T07:50:02;98809.56;;;12.26;100.00
48824;BME280;34640;53.590;10.054;2023-10-31T07:52:35;98812.91;;;12.19;100.00
48824;BME280;34640;53.590;10.054;2023-10-31T07:55:08;98810.84;;;12.04;100.00
48824;BME280;34640;53.590;10.054;2023-10-31T07:57:45;98814.19;;;11.99;100.00
48824;BME280;34640;53.590;10.054;2023-10-31T08:00:20;98807.06;;;11.91;100.00
48824;BME280;34640;53.590;10.054;2023-10-31T08:02:53;98807.91;;;11.90;100.00
48824;BME280;34640;53.590;10.054;2023-10-31T08:05:27;98816.41;;;11.82;100.00
48824;BME280;34640;53.590;10.054;2023-10-31T08:08:00;98810.03;;;11.71;100.00
48824;BME280;34640;53.590;10.054;2023-10-31T08:10:34;98821.25;;;11.68;100.00
48824;BME280;34640;53.590;10.054;2023-10-31T08:13:07;98818.75;;;11.71;100.00
48824;BME280;34640;53.590;10.054;2023-10-31T08:15:41;98832.38;;;11.59;100.00
48824;BME280;34640;53.590;10.054;2023-10-31T08:18:14;98825.47;;;11.61;100.00
48824;BME280;34640;53.590;10.054;2023-10-31T08:20:47;98822.06;;;11.66;100.00
48824;BME280;34640;53.590;10.054;2023-10-31T08:23:22;98823.84;;;11.67;100.00
48824;BME280;34640;53.590;10.054;2023-10-31T08:25:55;98818.34;;;11.54;100.00
48824;BME280;34640;53.590;10.054;2023-10-31T08:28:28;98817.28;;;11.48;100.00
48824;BME280;34640;53.590;10.054;2023-10-31T08:31:03;98819.78;;;11.43;100.00
48824;BME280;34640;53.590;10.054;2023-10-31T08:33:36;98829.00;;;11.29;100.00
48824;BME280;34640;53.590;10.054;2023-10-31T08:36:09;98818.66;;;11.32;100.00
48824;BME280;34640;53.590;10.054;2023-10-31T08:38:42;98817.63;;;11.27;100.00
48824;BME280;34640;53.590;10.054;2023-10-31T08:41:15;98815.69;;;11.18;100.00
48824;BME280;34640;53.590;10.054;2023-10-31T08:43:51;98813.88;;;11.16;100.00
48824;BME280;34640;53.590;10.054;2023-10-31T08:46:25;98823.44;;;11.15;100.00
48824;BME280;34640;53.590;10.054;2023-10-31T08:48:58;98830.47;;;11.19;100.00
48824;BME280;34640;53.590;10.054;2023-10-31T08:51:31;98821.94;;;11.25;100.00
48824;BME280;34640;53.590;10.054;2023-10-31T08:54:04;98825.34;;;11.22;100.00
48824;BME280;34640;53.590;10.054;2023-10-31T08:56:37;98828.34;;;11.38;100.00
48824;BME280;34640;53.590;10.054;2023-10-31T08:59:10;98813.56;;;11.37;100.00
48824;BME280;34640;53.590;10.054;2023-10-31T09:01:44;98823.91;;;11.33;100.00
48824;BME280;34640;53.590;10.054;2023-10-31T09:04:17;98828.66;;;11.50;100.00
48824;BME280;34640;53.590;10.054;2023-10-31T09:06:50;98824.25;;;11.49;100.00
48824;BME280;34640;53.590;10.054;2023-10-31T09:09:23;98826.22;;;11.57;100.00
48824;BME280;34640;53.590;10.054;2023-10-31T09:11:56;98832.59;;;11.70;100.00
48824;BME280;34640;53.590;10.054;2023-10-31T09:14:29;98836.22;;;11.75;100.00
48824;BME280;34640;53.590;10.054;2023-10-31T09:17:04;98841.59;;;11.80;100.00
48824;BME280;34640;53.590;10.054;2023-10-31T09:19:36;98852.66;;;11.71;100.00
48824;BME280;34640;53.590;10.054;2023-10-31T09:22:09;98862.34;;;11.77;100.00
48824;BME280;34640;53.590;10.054;2023-10-31T09:24:42;98859.84;;;11.80;100.00
48824;BME280;34640;53.590;10.054;2023-10-31T09:27:17;98863.28;;;11.79;100.00
48824;BME280;34640;53.590;10.054;2023-10-31T09:29:50;98866.72;;;11.78;100.00
48824;BME280;34640;53.590;10.054;2023-10-31T09:32:24;98878.94;;;11.79;100.00
48824;BME280;34640;53.590;10.054;2023-10-31T09:34:57;98888.34;;;11.74;100.00
48824;BME280;34640;53.590;10.054;2023-10-31T09:37:30;98902.25;;;11.74;100.00
48824;BME280;34640;53.590;10.054;2023-10-31T09:40:04;98910.94;;;11.73;100.00
48824;BME280;34640;53.590;10.054;2023-10-31T09:42:37;98933.47;;;11.71;100.00
48824;BME280;34640;53.590;10.054;2023-10-31T09:45:10;98942.88;;;11.66;100.00
48824;BME280;34640;53.590;10.054;2023-10-31T09:47:44;98947.06;;;11.59;100.00
48824;BME280;34640;53.590;10.054;2023-10-31T09:50:17;98967.53;;;11.46;100.00
48824;BME280;34640;53.590;10.054;2023-10-31T09:52:50;98986.22;;;11.29;100.00
48824;BME280;34640;53.590;10.054;2023-10-31T09:55:25;98993.50;;;11.11;100.00
48824;BME280;34640;53.590;10.054;2023-10-31T09:57:58;99007.34;;;11.09;100.00
48824;BME280;34640;53.590;10.054;2023-10-31T10:00:31;99020.72;;;10.92;100.00
48824;BME280;34640;53.590;10.054;2023-10-31T10:03:06;99027.34;;;10.83;100.00
48824;BME280;34640;53.590;10.054;2023-10-31T10:05:43;99031.91;;;10.88;100.00
48824;BME280;34640;53.590;10.054;2023-10-31T10:08:16;99044.00;;;10.86;100.00
48824;BME280;34640;53.590;10.054;2023-10-31T10:10:49;99051.09;;;10.92;100.00
48824;BME280;34640;53.590;10.054;2023-10-31T10:13:23;99066.84;;;10.96;100.00
48824;BME280;34640;53.590;10.054;2023-10-31T10:15:56;99072.69;;;10.88;100.00
48824;BME280;34640;53.590;10.054;2023-10-31T10:18:31;99096.16;;;10.89;100.00
48824;BME280;34640;53.590;10.054;2023-10-31T10:21:08;99103.19;;;10.92;100.00
48824;BME280;34640;53.590;10.054;2023-10-31T10:23:41;99110.59;;;10.80;100.00
48824;BME280;34640;53.590;10.054;2023-10-31T10:26:14;99114.81;;;10.76;100.00
48824;BME280;34640;53.590;10.054;2023-10-31T10:28:47;99138.31;;;10.78;100.00
48824;BME280;34640;53.590;10.054;2023-10-31T10:31:23;99154.56;;;10.70;100.00
48824;BME280;34640;53.590;10.054;2023-10-31T10:33:58;99159.63;;;10.66;100.00
48824;BME280;34640;53.590;10.054;2023-10-31T10:36:33;99174.47;;;10.68;100.00
48824;BME280;34640;53.590;10.054;2023-10-31T10:39:06;99183.94;;;10.66;100.00
48824;BME280;34640;53.590;10.054;2023-10-31T10:41:42;99195.06;;;10.62;100.00
48824;BME280;34640;53.590;10.054;2023-10-31T10:44:18;99193.41;;;10.64;100.00
48824;BME280;34640;53.590;10.054;2023-10-31T10:46:54;99201.72;;;10.54;100.00
48824;BME280;34640;53.590;10.054;2023-10-31T10:49:32;99210.66;;;10.62;100.00
48824;BME280;34640;53.590;10.054;2023-10-31T10:52:14;99212.53;;;10.65;100.00
48824;BME280;34640;53.590;10.054;2023-10-31T10:54:53;99226.53;;;10.68;100.00
48824;BME280;34640;53.590;10.054;2023-10-31T10:57:33;99228.19;;;10.66;100.00
48824;BME280;34640;53.590;10.054;2023-10-31T11:00:10;99235.31;;;10.72;100.00
48824;BME280;34640;53.590;10.054;2023-10-31T11:02:45;99247.59;;;10.76;100.00
48824;BME280;34640;53.590;10.054;2023-10-31T11:05:23;99251.09;;;10.77;100.00
48824;BME280;34640;53.590;10.054;2023-10-31T11:07:57;99261.41;;;10.74;100.00
48824;BME280;34640;53.590;10.054;2023-10-31T11:10:31;99264.00;;;10.74;100.00
48824;BME280;34640;53.590;10.054;2023-10-31T11:13:04;99275.88;;;10.65;100.00
48824;BME280;34640;53.590;10.054;2023-10-31T11:15:37;99272.41;;;10.65;100.00
48824;BME280;34640;53.590;10.054;2023-10-31T11:18:11;99276.09;;;10.71;100.00
48824;BME280;34640;53.590;10.054;2023-10-31T11:20:46;99281.34;;;10.73;100.00
48824;BME280;34640;53.590;10.054;2023-10-31T11:23:19;99285.66;;;10.73;100.00
48824;BME280;34640;53.590;10.054;2023-10-31T11:25:53;99302.16;;;10.73;100.00
48824;BME280;34640;53.590;10.054;2023-10-31T11:28:26;99297.53;;;10.64;100.00
48824;BME280;34640;53.590;10.054;2023-10-31T11:30:59;99301.22;;;10.71;100.00
48824;BME280;34640;53.590;10.054;2023-10-31T11:33:38;99313.56;;;10.77;100.00
48824;BME280;34640;53.590;10.054;2023-10-31T11:36:13;99317.22;;;10.82;100.00
48824;BME280;34640;53.590;10.054;2023-10-31T11:38:47;99315.63;;;10.85;100.00
48824;BME280;34640;53.590;10.054;2023-10-31T11:41:20;99329.66;;;10.89;100.00
48824;BME280;34640;53.590;10.054;2023-10-31T11:43:53;99336.72;;;10.93;100.00
48824;BME280;34640;53.590;10.054;2023-10-31T11:46:26;99341.34;;;11.01;100.00
48824;BME280;34640;53.590;10.054;2023-10-31T11:49:00;99346.97;;;11.12;100.00
48824;BME280;34640;53.590;10.054;2023-10-31T11:51:36;99349.97;;;11.24;100.00
48824;BME280;34640;53.590;10.054;2023-10-31T11:54:09;99360.72;;;11.33;100.00
48824;BME280;34640;53.590;10.054;2023-10-31T11:56:50;99364.94;;;11.30;100.00
48824;BME280;34640;53.590;10.054;2023-10-31T11:59:24;99369.38;;;11.32;100.00
48824;BME280;34640;53.590;10.054;2023-10-31T12:01:59;99370.75;;;11.48;100.00
48824;BME280;34640;53.590;10.054;2023-10-31T12:04:32;99373.06;;;11.39;100.00
48824;BME280;34640;53.590;10.054;2023-10-31T12:07:06;99372.13;;;11.37;100.00
48824;BME280;34640;53.590;10.054;2023-10-31T12:09:46;99390.63;;;11.45;100.00
48824;BME280;34640;53.590;10.054;2023-10-31T12:12:30;99388.94;;;11.47;100.00
48824;BME280;34640;53.590;10.054;2023-10-31T12:15:05;99387.75;;;11.62;100.00
48824;BME280;34640;53.590;10.054;2023-10-31T12:17:40;99390.00;;;11.52;100.00
48824;BME280;34640;53.590;10.054;2023-10-31T12:20:13;99389.81;;;11.71;100.00
48824;BME280;34640;53.590;10.054;2023-10-31T12:22:47;99394.72;;;11.89;100.00
48824;BME280;34640;53.590;10.054;2023-10-31T12:25:33;99384.31;;;11.89;100.00
48824;BME280;34640;53.590;10.054;2023-10-31T12:28:17;99384.72;;;11.76;100.00
48824;BME280;34640;53.590;10.054;2023-10-31T12:30:51;99395.09;;;11.74;100.00
48824;BME280;34640;53.590;10.054;2023-10-31T12:33:26;99404.00;;;11.79;100.00
48824;BME280;34640;53.590;10.054;2023-10-31T12:36:00;99415.56;;;11.87;100.00
48824;BME280;34640;53.590;10.054;2023-10-31T12:38:35;99428.13;;;11.74;100.00
48824;BME280;34640;53.590;10.054;2023-10-31T12:41:08;99438.78;;;11.80;100.00
48824;BME280;34640;53.590;10.054;2023-10-31T12:43:40;99435.81;;;11.71;100.00
48824;BME280;34640;53.590;10.054;2023-10-31T12:46:34;99433.81;;;11.62;100.00
48824;BME280;34640;53.590;10.054;2023-10-31T12:49:11;99435.16;;;11.76;100.00
48824;BME280;34640;53.590;10.054;2023-10-31T12:51:58;99431.09;;;11.84;100.00
48824;BME280;34640;53.590;10.054;2023-10-31T12:54:34;99445.41;;;11.96;100.00
48824;BME280;34640;53.590;10.054;2023-10-31T12:57:08;99452.69;;;12.06;100.00
48824;BME280;34640;53.590;10.054;2023-10-31T12:59:42;99455.66;;;12.16;100.00
48824;BME280;34640;53.590;10.054;2023-10-31T13:02:16;99445.03;;;12.12;100.00
48824;BME280;34640;53.590;10.054;2023-10-31T13:04:49;99450.06;;;12.06;100.00
48824;BME280;34640;53.590;10.054;2023-10-31T13:07:26;99458.50;;;11.97;100.00
48824;BME280;34640;53.590;10.054;2023-10-31T13:10:01;99457.66;;;11.98;100.00
48824;BME280;34640;53.590;10.054;2023-10-31T13:12:34;99465.47;;;11.98;100.00
48824;BME280;34640;53.590;10.054;2023-10-31T13:15:08;99471.72;;;12.03;100.00